createdAt,value
2022-10-20T08:10:06.434Z,72.40
2022-10-20T08:12:52.248Z,72.83
2022-10-20T08:15:50.629Z,72.52
2022-10-20T08:21:37.764Z,72.61
2022-10-20T08:24:23.262Z,72.04
2022-10-20T08:27:08.810Z,71.96
2022-10-20T08:30:06.161Z,71.61
2022-10-20T08:33:00.692Z,71.59
2022-10-20T08:35:46.742Z,71.13
2022-10-20T08:38:31.996Z,69.80
2022-10-20T08:41:18.280Z,70.24
2022-10-20T08:44:05.846Z,70.29
2022-10-20T08:46:55.566Z,70.01
2022-10-20T08:49:49.804Z,68.47
2022-10-20T08:52:36.705Z,68.09
2022-10-20T08:55:24.242Z,70.46
2022-10-20T08:58:09.915Z,70.47
2022-10-20T09:00:57.141Z,69.81
2022-10-20T09:03:47.669Z,68.32
2022-10-20T09:06:34.982Z,69.08
2022-10-20T09:09:21.170Z,69.13
2022-10-20T09:12:07.318Z,68.76
2022-10-20T09:14:55.493Z,67.62
2022-10-20T09:17:40.890Z,67.44
2022-10-20T09:20:36.837Z,65.80
2022-10-20T09:23:40.090Z,67.03
2022-10-20T09:26:54.623Z,64.72
2022-10-20T09:29:56.845Z,65.37
2022-10-20T09:32:55.055Z,65.15
2022-10-20T09:35:54.698Z,65.88
2022-10-20T09:38:46.775Z,65.35
2022-10-20T09:41:42.177Z,62.95
2022-10-20T09:44:41.436Z,63.93
2022-10-20T09:47:35.366Z,64.74
2022-10-20T09:50:39.770Z,64.55
2022-10-20T09:53:48.701Z,63.13
2022-10-20T09:56:50.933Z,62.21
2022-10-20T09:59:54.403Z,63.18
2022-10-20T10:02:43.232Z,64.35
2022-10-20T10:05:35.816Z,63.22
2022-10-20T10:08:21.474Z,64.84
2022-10-20T10:11:22.707Z,60.97
2022-10-20T10:14:11.673Z,64.26
2022-10-20T10:17:01.611Z,63.52
2022-10-20T10:19:55.401Z,63.64
2022-10-20T10:22:42.161Z,64.41
2022-10-20T10:25:41.201Z,62.62
2022-10-20T10:28:44.866Z,62.41
2022-10-20T10:31:41.163Z,62.39
2022-10-20T10:34:32.823Z,62.82
2022-10-20T10:40:06.695Z,63.68
2022-10-20T10:43:31.490Z,60.34
2022-10-20T10:46:28.747Z,63.04
2022-10-20T10:49:54.211Z,60.81
2022-10-20T10:53:03.972Z,61.68
2022-10-20T10:56:11.963Z,61.38
2022-10-20T10:59:12.104Z,62.58
2022-10-20T11:02:36.975Z,62.96
2022-10-20T11:05:29.973Z,61.21
2022-10-20T11:08:54.643Z,61.80
2022-10-20T11:12:10.065Z,60.34
2022-10-20T11:15:25.068Z,62.61
2022-10-20T11:18:29.158Z,61.83
2022-10-20T11:21:15.280Z,63.88
2022-10-20T11:24:17.839Z,61.83
2022-10-20T11:27:05.847Z,63.77
2022-10-20T11:30:19.511Z,61.96
2022-10-20T11:33:42.775Z,60.80
2022-10-20T11:36:37.882Z,61.06
2022-10-20T11:39:27.344Z,62.24
2022-10-20T11:42:19.716Z,61.70
2022-10-20T11:45:07.254Z,62.04
2022-10-20T11:48:00.102Z,61.38
2022-10-20T11:50:52.722Z,61.29
2022-10-20T11:54:24.103Z,60.42
2022-10-20T11:57:25.421Z,61.10
2022-10-20T12:00:47.244Z,60.00
2022-10-20T12:03:42.650Z,61.09
2022-10-20T12:06:47.001Z,60.61
2022-10-20T12:09:44.801Z,60.45
2022-10-20T12:12:48.637Z,60.66
2022-10-20T12:15:45.686Z,61.34
2022-10-20T12:18:50.300Z,61.53
2022-10-20T12:22:13.789Z,61.54
2022-10-20T12:25:00.684Z,62.36
2022-10-20T12:27:52.768Z,62.13
2022-10-20T12:30:58.523Z,60.72
2022-10-20T12:33:59.947Z,60.71
2022-10-20T12:36:51.450Z,61.95
2022-10-20T12:39:39.844Z,61.25
2022-10-20T12:42:31.092Z,61.67
2022-10-20T12:45:26.073Z,60.91
2022-10-20T12:48:18.333Z,61.21
2022-10-20T12:51:05.812Z,61.58
2022-10-20T12:53:51.953Z,61.10
2022-10-20T12:56:40.104Z,61.04
2022-10-20T12:59:47.667Z,59.75
2022-10-20T13:02:36.163Z,61.15
2022-10-20T13:05:27.389Z,60.09
2022-10-20T13:08:12.924Z,61.05
2022-10-20T13:10:58.617Z,61.23
2022-10-20T13:13:44.755Z,61.00
2022-10-20T13:16:37.300Z,60.90
2022-10-20T13:19:28.629Z,60.64
2022-10-20T13:22:14.952Z,60.96
2022-10-20T13:25:00.273Z,60.93
2022-10-20T13:27:48.911Z,61.18
2022-10-20T13:30:40.116Z,60.60
2022-10-20T13:33:58.827Z,61.30
2022-10-20T13:37:13.903Z,60.43
2022-10-20T13:40:11.833Z,61.31
2022-10-20T13:43:19.364Z,61.48
2022-10-20T13:46:07.881Z,61.91
2022-10-20T13:49:18.002Z,61.55
2022-10-20T13:52:15.104Z,61.92
2022-10-20T13:55:13.544Z,61.40
2022-10-20T13:58:09.330Z,61.64
2022-10-20T14:00:56.190Z,61.96
2022-10-20T14:03:42.860Z,62.37
2022-10-20T14:06:48.830Z,62.10
2022-10-20T14:09:45.254Z,62.52
2022-10-20T14:12:40.115Z,62.59
2022-10-20T14:15:27.267Z,62.70
2022-10-20T14:18:22.883Z,62.78
2022-10-20T14:21:19.163Z,62.32
2022-10-20T14:24:07.301Z,63.02
2022-10-20T14:26:55.654Z,62.86
2022-10-20T14:29:42.712Z,63.49
2022-10-20T14:32:37.949Z,63.30
2022-10-20T14:35:30.689Z,63.12
2022-10-20T14:38:34.187Z,63.36
2022-10-20T14:41:20.261Z,63.73
2022-10-20T14:44:12.934Z,63.99
2022-10-20T14:47:05.395Z,63.85
2022-10-20T14:49:58.011Z,63.84
2022-10-20T14:52:53.660Z,63.86
2022-10-20T14:55:51.644Z,64.01
2022-10-20T14:58:53.284Z,64.55
2022-10-20T15:01:50.674Z,65.02
2022-10-20T15:04:48.418Z,64.78
2022-10-20T15:07:40.957Z,64.79
2022-10-20T15:10:27.976Z,65.08
2022-10-20T15:13:13.881Z,65.30
2022-10-20T15:16:00.390Z,65.37
2022-10-20T15:18:47.892Z,65.60
2022-10-20T15:21:33.221Z,65.67
2022-10-20T15:24:18.963Z,66.15
2022-10-20T15:27:04.810Z,65.90
2022-10-20T15:29:51.292Z,65.95
2022-10-20T15:32:37.346Z,66.18
2022-10-20T15:35:30.570Z,66.05
2022-10-20T15:38:15.925Z,66.33
2022-10-20T15:43:53.242Z,66.97
2022-10-20T15:46:39.342Z,66.93
2022-10-20T15:49:24.890Z,67.10
2022-10-20T15:52:10.517Z,67.12
2022-10-20T15:54:55.835Z,67.20
2022-10-20T15:57:41.467Z,67.26
2022-10-20T16:00:29.703Z,67.19
2022-10-20T16:06:27.527Z,67.33
2022-10-20T16:09:16.412Z,67.30
2022-10-20T16:12:03.412Z,67.31
2022-10-20T16:14:54.079Z,67.32
2022-10-20T16:17:40.429Z,67.54
2022-10-20T16:20:26.770Z,67.63
2022-10-20T16:23:14.239Z,67.64
2022-10-20T16:26:01.843Z,67.62
2022-10-20T16:28:47.335Z,67.51
2022-10-20T16:31:36.602Z,67.73
2022-10-20T16:34:25.413Z,67.49
2022-10-20T16:37:10.887Z,67.32
2022-10-20T16:39:57.995Z,67.12
2022-10-20T16:42:43.960Z,66.91
2022-10-20T16:45:29.870Z,67.16
2022-10-20T16:48:19.967Z,66.95
2022-10-20T16:51:05.318Z,67.12
2022-10-20T16:53:50.686Z,67.39
2022-10-20T16:56:38.315Z,66.80
2022-10-20T16:59:23.879Z,66.91
2022-10-20T17:02:09.265Z,66.90
2022-10-20T17:04:55.119Z,66.72
2022-10-20T17:07:40.672Z,66.89
2022-10-20T17:10:26.846Z,66.84
2022-10-20T17:13:12.591Z,66.66
2022-10-20T17:15:57.998Z,66.93
2022-10-20T17:18:43.395Z,66.64
2022-10-20T17:21:30.239Z,66.78
2022-10-20T17:24:16.155Z,66.96
2022-10-20T17:27:01.769Z,66.70
2022-10-20T17:29:47.188Z,66.80
2022-10-20T17:32:32.485Z,66.71
2022-10-20T17:35:20.635Z,66.95
2022-10-20T17:38:05.981Z,66.79
2022-10-20T17:40:56.999Z,66.67
2022-10-20T17:43:42.564Z,66.78
2022-10-20T17:46:31.612Z,66.73
2022-10-20T17:49:17.050Z,66.64
2022-10-20T17:52:02.510Z,66.60
2022-10-20T17:54:47.972Z,67.01
2022-10-20T17:57:34.091Z,67.09
2022-10-20T18:00:31.738Z,66.95
2022-10-20T18:03:23.045Z,66.94
2022-10-20T18:06:08.456Z,67.27
2022-10-20T18:08:54.079Z,67.40
2022-10-20T18:11:43.715Z,67.44
2022-10-20T18:14:29.055Z,67.47
2022-10-20T18:17:14.589Z,67.39
2022-10-20T18:20:01.840Z,67.17
2022-10-20T18:22:47.913Z,66.81
2022-10-20T18:25:33.386Z,66.95
2022-10-20T18:28:19.321Z,67.37
2022-10-20T18:31:05.640Z,67.17
2022-10-20T18:33:51.547Z,67.11
2022-10-20T18:36:42.054Z,67.25
2022-10-20T18:39:32.001Z,67.25
2022-10-20T18:42:17.746Z,66.96
2022-10-20T18:45:03.458Z,66.75
2022-10-20T18:47:48.828Z,66.99
2022-10-20T18:50:34.312Z,66.78
2022-10-20T18:53:21.633Z,66.97
2022-10-20T18:56:27.515Z,66.78
2022-10-20T18:59:16.006Z,66.90
2022-10-20T19:02:02.342Z,67.13
2022-10-20T19:04:47.798Z,67.13
2022-10-20T19:07:33.452Z,67.04
2022-10-20T19:10:18.944Z,66.76
2022-10-20T19:13:04.513Z,66.88
2022-10-20T19:15:50.018Z,66.64
2022-10-20T19:18:35.415Z,66.50
2022-10-20T19:21:23.741Z,66.73
2022-10-20T19:24:12.254Z,66.86
2022-10-20T19:27:26.558Z,66.40
2022-10-20T19:30:15.069Z,66.49
2022-10-20T19:33:00.607Z,66.42
2022-10-20T19:35:46.118Z,66.80
2022-10-20T19:38:31.579Z,66.84
2022-10-20T19:41:17.217Z,66.97
2022-10-20T19:44:03.037Z,66.98
2022-10-20T19:46:49.988Z,67.28
2022-10-20T19:49:36.599Z,66.87
2022-10-20T19:52:23.195Z,67.05
2022-10-20T19:55:08.723Z,67.15
2022-10-20T19:57:56.633Z,67.26
2022-10-20T20:00:42.237Z,66.85
2022-10-20T20:03:27.890Z,67.17
2022-10-20T20:06:22.770Z,66.97
2022-10-20T20:09:11.008Z,67.11
2022-10-20T20:11:57.313Z,66.78
2022-10-20T20:14:42.646Z,66.83
2022-10-20T20:17:28.039Z,66.83
2022-10-20T20:20:13.521Z,66.64
2022-10-20T20:22:59.189Z,66.96
2022-10-20T20:25:44.817Z,66.95
2022-10-20T20:28:30.784Z,67.31
2022-10-20T20:31:26.847Z,66.71
2022-10-20T20:34:12.829Z,66.92
2022-10-20T20:36:58.373Z,67.02
2022-10-20T20:39:43.871Z,67.05
2022-10-20T20:42:29.515Z,66.58
2022-10-20T20:45:14.807Z,66.81
2022-10-20T20:48:00.188Z,67.16
2022-10-20T20:50:45.721Z,66.79
2022-10-20T20:56:21.931Z,66.56
2022-10-20T20:59:12.215Z,66.80
2022-10-20T21:01:57.824Z,66.76
2022-10-20T21:04:43.306Z,66.67
2022-10-20T21:07:28.922Z,66.62
2022-10-20T21:10:14.323Z,66.49
2022-10-20T21:12:59.993Z,66.77
2022-10-20T21:15:45.300Z,66.39
2022-10-20T21:18:31.001Z,66.65
2022-10-20T21:21:17.250Z,66.34
2022-10-20T21:24:03.081Z,66.42
2022-10-20T21:26:49.122Z,66.13
2022-10-20T21:29:34.983Z,66.46
2022-10-20T21:32:20.382Z,66.40
2022-10-20T21:35:05.749Z,66.40
2022-10-20T21:37:51.043Z,66.43
2022-10-20T21:40:36.640Z,66.08
2022-10-20T21:43:22.255Z,65.97
2022-10-20T21:46:09.443Z,66.10
2022-10-20T21:48:54.849Z,66.14
2022-10-20T21:51:46.064Z,66.28
2022-10-20T21:54:34.263Z,66.30
2022-10-20T21:57:19.569Z,66.24
2022-10-20T22:00:04.987Z,66.01
2022-10-20T22:02:53.764Z,65.92
2022-10-20T22:05:39.144Z,65.97
2022-10-20T22:08:25.091Z,66.13
2022-10-20T22:11:10.987Z,65.75
2022-10-20T22:13:56.447Z,65.99
2022-10-20T22:16:44.408Z,65.89
2022-10-20T22:19:35.781Z,66.08
2022-10-20T22:22:22.417Z,66.25
2022-10-20T22:25:07.872Z,65.89
2022-10-20T22:27:53.438Z,66.32
2022-10-20T22:30:39.183Z,66.31
2022-10-20T22:33:24.498Z,66.12
2022-10-20T22:36:12.322Z,66.31
2022-10-20T22:38:57.822Z,65.93
2022-10-20T22:41:43.246Z,66.00
2022-10-20T22:44:31.383Z,66.18
2022-10-20T22:47:16.698Z,66.33
2022-10-20T22:50:02.028Z,66.34
2022-10-20T22:52:49.686Z,66.67
2022-10-20T22:55:36.188Z,66.71
2022-10-20T22:58:22.153Z,66.79
2022-10-20T23:01:09.795Z,66.66
2022-10-20T23:03:56.178Z,66.56
2022-10-20T23:06:44.382Z,66.76
2022-10-20T23:09:31.611Z,67.06
2022-10-20T23:12:17.209Z,67.21
2022-10-20T23:15:02.653Z,67.10
2022-10-20T23:17:48.916Z,67.15
2022-10-20T23:20:34.696Z,67.10
2022-10-20T23:23:20.168Z,67.39
2022-10-20T23:26:11.435Z,67.36
2022-10-20T23:28:57.854Z,67.42
2022-10-20T23:31:43.231Z,67.12
2022-10-20T23:34:30.682Z,67.48
2022-10-20T23:37:16.074Z,66.98
2022-10-20T23:40:01.733Z,67.16
2022-10-20T23:42:49.626Z,67.35
2022-10-20T23:45:37.012Z,67.25
2022-10-20T23:48:24.271Z,67.24
2022-10-20T23:51:17.880Z,67.44
2022-10-20T23:54:03.390Z,67.46
2022-10-20T23:56:48.782Z,67.67
2022-10-20T23:59:35.378Z,67.79
